createdAt,value
2022-10-19T00:01:38.346Z,11.40
2022-10-19T00:05:40.171Z,11.67
2022-10-19T00:09:44.338Z,10.87
2022-10-19T00:13:46.132Z,11.23
2022-10-19T00:17:47.930Z,10.47
2022-10-19T00:25:56.856Z,9.70
2022-10-19T00:29:58.811Z,9.50
2022-10-19T00:34:00.703Z,9.17
2022-10-19T00:38:02.532Z,9.20
2022-10-19T00:42:04.424Z,9.33
2022-10-19T00:46:06.216Z,10.50
2022-10-19T00:50:08.881Z,9.47
2022-10-19T00:54:10.785Z,8.30
2022-10-19T00:58:12.632Z,9.07
2022-10-19T01:06:28.173Z,9.23
2022-10-19T01:10:57.039Z,9.40
2022-10-19T01:15:41.551Z,8.43
2022-10-19T01:20:33.369Z,8.30
2022-10-19T01:25:07.014Z,9.07
2022-10-19T01:29:24.917Z,8.03
2022-10-19T01:33:45.433Z,7.70
2022-10-19T01:37:50.340Z,7.20
2022-10-19T01:42:03.216Z,7.73
2022-10-19T01:46:11.906Z,6.57
2022-10-19T01:50:17.602Z,7.27
2022-10-19T01:54:19.609Z,6.93
2022-10-19T01:58:29.854Z,7.10
2022-10-19T02:02:31.967Z,6.50
2022-10-19T02:06:46.628Z,6.20
2022-10-19T02:10:48.433Z,5.73
2022-10-19T02:14:59.648Z,6.20
2022-10-19T02:19:07.618Z,6.03
2022-10-19T02:23:09.524Z,5.83
2022-10-19T02:27:11.864Z,6.00
2022-10-19T02:31:13.611Z,5.60
2022-10-19T02:35:15.713Z,6.00
2022-10-19T02:39:17.483Z,5.53
2022-10-19T02:43:21.355Z,5.33
2022-10-19T02:47:35.992Z,5.37
2022-10-19T02:52:01.901Z,5.87
2022-10-19T02:56:04.056Z,5.10
2022-10-19T03:00:08.027Z,5.20
2022-10-19T03:04:10.024Z,5.30
2022-10-19T03:08:15.090Z,5.57
2022-10-19T03:12:17.587Z,4.93
2022-10-19T03:16:19.592Z,5.47
2022-10-19T03:20:21.737Z,5.53
2022-10-19T03:24:25.931Z,6.27
2022-10-19T03:28:28.073Z,6.80
2022-10-19T03:32:29.988Z,6.60
2022-10-19T03:36:34.120Z,6.23
2022-10-19T03:40:36.043Z,6.53
2022-10-19T03:44:37.964Z,6.67
2022-10-19T03:48:39.803Z,7.13
2022-10-19T03:52:45.325Z,6.70
2022-10-19T03:56:47.246Z,7.00
2022-10-19T04:00:49.151Z,7.23
2022-10-19T04:04:51.214Z,6.70
2022-10-19T04:08:53.151Z,6.97
2022-10-19T04:12:56.075Z,7.40
2022-10-19T04:16:58.138Z,7.83
2022-10-19T04:21:02.469Z,6.90
2022-10-19T04:25:05.464Z,6.90
2022-10-19T04:29:10.688Z,6.17
2022-10-19T04:33:12.692Z,7.00
2022-10-19T04:37:14.767Z,6.67
2022-10-19T04:41:19.722Z,7.43
2022-10-19T04:45:21.604Z,7.10
2022-10-19T04:49:23.522Z,6.27
2022-10-19T04:53:25.533Z,6.90
2022-10-19T04:57:27.625Z,7.00
2022-10-19T05:01:30.913Z,6.53
2022-10-19T05:05:33.309Z,6.60
2022-10-19T05:09:35.241Z,7.27
2022-10-19T05:13:37.262Z,6.37
2022-10-19T05:17:54.080Z,6.30
2022-10-19T05:21:55.937Z,5.70
2022-10-19T05:26:12.855Z,5.93
2022-10-19T05:30:14.822Z,6.47
2022-10-19T05:34:16.702Z,6.10
2022-10-19T05:38:18.790Z,6.40
2022-10-19T05:42:45.498Z,6.00
2022-10-19T05:46:51.508Z,5.67
2022-10-19T05:50:57.274Z,5.93
2022-10-19T05:54:59.594Z,5.23
2022-10-19T05:59:04.436Z,6.07
2022-10-19T06:03:06.325Z,5.33
2022-10-19T06:07:08.241Z,6.17
2022-10-19T06:11:15.853Z,5.97
2022-10-19T06:15:17.800Z,5.33
2022-10-19T06:19:19.874Z,6.13
2022-10-19T06:23:21.711Z,5.13
2022-10-19T06:27:23.635Z,4.70
2022-10-19T06:31:25.638Z,4.83
2022-10-19T06:35:32.876Z,4.17
2022-10-19T06:39:34.816Z,4.27
2022-10-19T06:43:36.937Z,3.90
2022-10-19T06:47:39.235Z,3.50
2022-10-19T06:51:41.320Z,3.40
2022-10-19T06:55:43.178Z,3.07
2022-10-19T07:00:56.605Z,2.63
2022-10-19T07:05:06.141Z,2.37
2022-10-19T07:09:59.052Z,2.40
2022-10-19T07:14:10.073Z,2.73
2022-10-19T07:18:29.147Z,2.43
2022-10-19T07:22:59.193Z,2.40
2022-10-19T07:27:08.801Z,2.30
2022-10-19T07:32:09.754Z,2.40
2022-10-19T07:36:15.413Z,3.40
2022-10-19T07:40:17.383Z,2.77
2022-10-19T07:44:19.797Z,2.93
2022-10-19T07:48:21.741Z,2.30
2022-10-19T07:52:23.843Z,2.40
2022-10-19T07:56:27.286Z,2.47
2022-10-19T08:00:29.954Z,3.00
2022-10-19T08:08:57.227Z,2.53
2022-10-19T08:12:59.433Z,3.00
2022-10-19T08:17:17.233Z,2.43
2022-10-19T08:21:19.414Z,2.60
2022-10-19T08:30:02.377Z,2.80
2022-10-19T08:34:14.844Z,2.23
2022-10-19T08:38:26.564Z,2.57
2022-10-19T08:43:05.590Z,2.47
2022-10-19T08:47:58.820Z,2.10
2022-10-19T08:52:30.756Z,2.90
2022-10-19T08:57:00.989Z,2.80
2022-10-19T09:02:03.845Z,2.30
2022-10-19T09:06:32.263Z,2.53
2022-10-19T09:10:44.847Z,2.57
2022-10-19T09:15:40.610Z,2.53
2022-10-19T09:19:48.483Z,2.40
2022-10-19T09:24:31.786Z,2.30
2022-10-19T09:29:04.209Z,2.53
2022-10-19T09:33:35.742Z,2.67
2022-10-19T09:37:40.656Z,2.00
2022-10-19T09:42:11.946Z,3.10
2022-10-19T09:47:11.528Z,2.80
2022-10-19T09:51:19.288Z,2.80
2022-10-19T09:56:14.981Z,3.10
2022-10-19T10:00:39.170Z,2.60
2022-10-19T10:04:41.652Z,2.00
2022-10-19T10:09:01.106Z,2.00
2022-10-19T10:13:28.430Z,2.53
2022-10-19T10:17:38.871Z,1.80
2022-10-19T10:22:17.162Z,1.90
2022-10-19T10:26:39.299Z,2.00
2022-10-19T10:31:03.079Z,2.40
2022-10-19T10:36:02.461Z,2.10
2022-10-19T10:41:01.105Z,1.70
2022-10-19T10:45:03.332Z,2.00
2022-10-19T10:49:24.460Z,2.13
2022-10-19T10:53:52.145Z,1.80
2022-10-19T10:59:09.983Z,2.10
2022-10-19T11:03:29.210Z,1.50
2022-10-19T11:07:37.012Z,1.40
2022-10-19T11:11:53.820Z,1.23
2022-10-19T11:16:13.785Z,1.40
2022-10-19T11:20:26.188Z,1.30
2022-10-19T11:24:59.954Z,1.43
2022-10-19T11:29:01.829Z,1.10
2022-10-19T11:38:19.717Z,0.80
2022-10-19T11:42:38.188Z,0.80
2022-10-19T11:46:55.155Z,0.77
2022-10-19T11:51:43.821Z,0.70
2022-10-19T11:56:19.265Z,0.57
2022-10-19T12:00:38.128Z,0.77
2022-10-19T12:04:49.515Z,0.93
2022-10-19T12:09:32.164Z,0.60
2022-10-19T12:13:56.255Z,0.50
2022-10-19T12:18:04.375Z,0.70
2022-10-19T12:22:07.450Z,0.60
2022-10-19T12:26:11.418Z,0.30
2022-10-19T12:30:23.012Z,0.60
2022-10-19T12:34:33.111Z,0.50
2022-10-19T12:39:00.576Z,0.80
2022-10-19T12:43:17.478Z,0.40
2022-10-19T12:47:21.910Z,0.80
2022-10-19T12:51:24.026Z,0.57
2022-10-19T12:55:29.865Z,0.73
2022-10-19T12:59:36.176Z,0.60
2022-10-19T13:03:41.330Z,0.20
2022-10-19T13:07:43.540Z,0.40
2022-10-19T13:12:22.034Z,0.43
2022-10-19T13:16:28.675Z,0.70
2022-10-19T13:20:33.340Z,0.50
2022-10-19T13:24:38.145Z,0.80
2022-10-19T13:28:40.201Z,0.60
2022-10-19T13:32:45.540Z,0.60
2022-10-19T13:37:11.577Z,0.47
2022-10-19T13:41:27.289Z,0.30
2022-10-19T13:45:29.233Z,0.30
2022-10-19T13:49:32.649Z,0.60
2022-10-19T13:54:00.782Z,0.63
2022-10-19T13:58:22.858Z,0.50
2022-10-19T14:03:11.680Z,0.40
2022-10-19T14:07:26.552Z,0.50
2022-10-19T14:11:33.278Z,0.40
2022-10-19T14:16:35.875Z,0.67
2022-10-19T14:21:14.427Z,0.40
2022-10-19T14:25:42.722Z,0.50
2022-10-19T14:29:48.183Z,0.53
2022-10-19T14:34:36.536Z,0.60
2022-10-19T14:44:58.719Z,0.70
2022-10-19T14:49:14.472Z,0.40
2022-10-19T14:53:41.267Z,0.70
2022-10-19T15:02:45.279Z,0.50
2022-10-19T15:06:47.139Z,0.70
2022-10-19T15:10:59.267Z,0.60
2022-10-19T15:15:24.791Z,0.80
2022-10-19T15:19:49.989Z,0.60
2022-10-19T15:23:55.665Z,0.50
2022-10-19T15:28:00.724Z,0.77
2022-10-19T15:32:28.349Z,0.60
2022-10-19T15:36:34.019Z,0.63
2022-10-19T15:40:38.998Z,0.70
2022-10-19T15:45:38.327Z,0.70
2022-10-19T15:49:43.271Z,1.00
2022-10-19T15:59:19.560Z,1.10
2022-10-19T16:03:24.060Z,1.50
2022-10-19T16:07:31.590Z,1.50
2022-10-19T16:11:35.440Z,2.00
2022-10-19T16:15:37.485Z,2.03
2022-10-19T16:19:39.391Z,1.47
2022-10-19T16:23:42.235Z,1.47
2022-10-19T16:27:44.419Z,1.57
2022-10-19T16:31:46.596Z,1.40
2022-10-19T16:35:48.533Z,1.93
2022-10-19T16:39:53.550Z,2.20
2022-10-19T16:44:45.878Z,2.27
2022-10-19T16:49:17.445Z,2.70
2022-10-19T16:53:30.279Z,2.70
2022-10-19T16:57:38.510Z,3.93
2022-10-19T17:01:53.659Z,3.97
2022-10-19T17:05:58.503Z,3.10
2022-10-19T17:10:00.990Z,2.83
2022-10-19T17:14:14.044Z,2.60
2022-10-19T17:18:23.448Z,2.60
2022-10-19T17:22:32.816Z,2.50
2022-10-19T17:26:38.049Z,3.30
2022-10-19T17:30:45.175Z,2.97
2022-10-19T17:34:54.590Z,2.87
2022-10-19T17:39:11.920Z,2.70
2022-10-19T17:44:22.713Z,1.97
2022-10-19T17:48:34.124Z,2.60
2022-10-19T17:52:44.923Z,2.50
2022-10-19T17:56:47.257Z,2.70
2022-10-19T18:01:07.191Z,2.40
2022-10-19T18:05:38.034Z,2.73
2022-10-19T18:09:47.728Z,2.67
2022-10-19T18:14:21.710Z,3.73
2022-10-19T18:18:42.157Z,2.60
2022-10-19T18:22:46.950Z,3.10
2022-10-19T18:26:59.763Z,3.83
2022-10-19T18:31:25.669Z,3.23
2022-10-19T18:35:27.660Z,3.80
2022-10-19T18:39:29.758Z,3.20
2022-10-19T18:43:31.883Z,3.90
2022-10-19T18:47:39.794Z,3.10
2022-10-19T18:51:43.414Z,3.20
2022-10-19T18:56:07.096Z,3.70
2022-10-19T19:00:15.479Z,3.30
2022-10-19T19:04:17.736Z,4.30
2022-10-19T19:08:20.138Z,4.40
2022-10-19T19:12:25.799Z,3.93
2022-10-19T19:17:09.870Z,4.23
2022-10-19T19:21:30.673Z,4.73
2022-10-19T19:25:46.071Z,5.00
2022-10-19T19:30:03.714Z,5.67
2022-10-19T19:34:34.140Z,5.80
2022-10-19T19:38:41.080Z,5.13
2022-10-19T19:42:52.048Z,5.70
2022-10-19T19:47:09.160Z,5.13
2022-10-19T19:51:17.009Z,5.20
2022-10-19T19:56:28.343Z,7.23
2022-10-19T20:01:07.314Z,5.80
2022-10-19T20:05:10.107Z,5.43
2022-10-19T20:09:23.219Z,5.77
2022-10-19T20:13:26.426Z,6.03
2022-10-19T20:17:36.070Z,5.90
2022-10-19T20:21:39.103Z,5.53
2022-10-19T20:25:41.053Z,6.00
2022-10-19T20:29:43.244Z,5.40
2022-10-19T20:33:47.581Z,5.97
2022-10-19T20:37:50.541Z,6.37
2022-10-19T20:41:53.238Z,6.63
2022-10-19T20:46:06.378Z,6.40
2022-10-19T20:50:09.123Z,6.17
2022-10-19T20:54:12.382Z,5.87
2022-10-19T20:58:14.315Z,6.10
2022-10-19T21:02:16.735Z,5.30
2022-10-19T21:06:18.978Z,5.60
2022-10-19T21:10:20.854Z,5.40
2022-10-19T21:14:27.234Z,4.90
2022-10-19T21:18:30.556Z,4.83
2022-10-19T21:22:41.498Z,5.30
2022-10-19T21:26:43.713Z,4.90
2022-10-19T21:30:45.610Z,5.17
2022-10-19T21:34:47.488Z,5.73
2022-10-19T21:38:49.293Z,6.33
2022-10-19T21:42:51.154Z,5.10
2022-10-19T21:46:53.191Z,5.33
2022-10-19T21:50:55.083Z,5.57
2022-10-19T21:54:57.007Z,5.07
2022-10-19T21:58:58.960Z,5.93
2022-10-19T22:03:00.872Z,5.20
2022-10-19T22:07:02.821Z,4.73
2022-10-19T22:11:06.777Z,4.53
2022-10-19T22:15:09.380Z,4.37
2022-10-19T22:19:11.351Z,5.07
2022-10-19T22:23:13.189Z,4.77
2022-10-19T22:27:15.550Z,4.50
2022-10-19T22:31:17.617Z,4.20
2022-10-19T22:35:19.582Z,4.23
2022-10-19T22:39:21.413Z,4.30
2022-10-19T22:43:23.238Z,4.47
2022-10-19T22:47:25.126Z,4.20
2022-10-19T22:51:27.054Z,4.00
2022-10-19T22:55:28.791Z,3.80
2022-10-19T22:59:30.625Z,4.43
2022-10-19T23:03:32.711Z,4.10
2022-10-19T23:07:34.850Z,3.67
2022-10-19T23:11:36.760Z,4.33
2022-10-19T23:15:43.064Z,4.10
2022-10-19T23:19:46.273Z,3.73
2022-10-19T23:23:48.185Z,4.40
2022-10-19T23:27:50.339Z,3.60
2022-10-19T23:31:53.054Z,4.47
2022-10-19T23:35:54.949Z,3.57
2022-10-19T23:39:56.751Z,4.20
2022-10-19T23:43:58.580Z,4.40
2022-10-19T23:48:00.318Z,4.03
2022-10-19T23:52:02.223Z,4.37
2022-10-19T23:56:16.312Z,4.03
